createdAt,value
2023-01-30T09:56:03.622Z,10.82
2023-01-30T10:01:58.405Z,10.84
2023-01-30T10:07:38.190Z,10.85
2023-01-30T10:13:10.209Z,10.85
2023-01-30T10:24:29.297Z,10.86
2023-01-30T10:40:37.507Z,11.60
2023-01-30T11:14:05.720Z,11.50
2023-01-30T11:24:43.933Z,11.49
2023-01-30T11:29:45.729Z,11.49
2023-01-30T11:35:04.986Z,11.44
2023-01-30T11:40:19.629Z,11.46
2023-01-30T11:50:49.654Z,11.46
2023-01-30T11:56:02.905Z,11.48
2023-01-30T12:01:09.383Z,11.45
2023-01-30T12:06:14.798Z,11.45
2023-01-30T12:11:26.846Z,11.48
2023-01-30T12:16:51.077Z,11.46
2023-01-30T12:22:01.609Z,11.47
2023-01-30T12:27:06.364Z,11.47
2023-01-30T12:32:14.310Z,11.46
2023-01-30T12:37:41.031Z,11.45
2023-01-30T12:43:03.267Z,11.46
2023-01-30T12:48:17.684Z,11.48
2023-01-30T12:54:07.926Z,11.48
2023-01-30T13:05:07.396Z,11.48
2023-01-30T13:40:06.888Z,11.45
2023-01-30T14:07:31.256Z,11.41
2023-01-30T15:34:52.442Z,11.49
2023-01-30T15:40:18.030Z,11.48
2023-01-30T15:45:28.679Z,11.49
2023-01-30T15:50:37.657Z,11.49
2023-01-30T15:55:44.691Z,11.49
2023-01-30T16:17:50.481Z,11.49
2023-01-30T16:39:56.782Z,11.48
2023-01-30T16:45:33.041Z,11.49
2023-01-30T16:50:38.279Z,11.48
2023-01-30T16:56:13.366Z,11.47
2023-01-30T17:01:15.603Z,11.48
2023-01-30T17:12:36.375Z,11.46
2023-01-30T17:17:39.481Z,11.49
2023-01-30T17:22:49.502Z,11.50
2023-01-30T17:27:55.574Z,11.50
2023-01-30T17:32:59.610Z,11.51
2023-01-30T17:38:06.104Z,11.51
2023-01-30T17:43:15.578Z,11.52
2023-01-30T17:48:21.574Z,11.51
2023-01-30T17:53:56.732Z,11.52
2023-01-30T17:59:00.671Z,11.53
2023-01-30T18:04:02.632Z,11.53
2023-01-30T18:09:07.481Z,11.51
2023-01-30T18:14:10.542Z,11.51
2023-01-30T18:19:13.930Z,11.52
2023-01-30T18:24:21.435Z,11.53
2023-01-30T18:29:32.822Z,11.49
2023-01-30T18:34:37.202Z,11.51
2023-01-30T18:39:47.519Z,11.52
2023-01-30T18:44:57.704Z,11.52
2023-01-30T18:50:10.574Z,11.51
2023-01-30T18:55:14.527Z,11.53
2023-01-30T19:00:17.671Z,11.53
2023-01-30T19:05:19.650Z,11.52
2023-01-30T19:10:23.647Z,11.53
2023-01-30T19:15:35.537Z,11.52
2023-01-30T19:20:40.399Z,11.52
2023-01-30T19:25:44.097Z,11.50
2023-01-30T19:30:51.857Z,11.53
2023-01-30T19:35:56.350Z,11.54
2023-01-30T19:41:02.824Z,11.51
2023-01-30T19:46:13.634Z,11.55
2023-01-30T19:51:17.248Z,11.54
2023-01-30T19:56:19.314Z,11.54
2023-01-30T20:01:37.728Z,11.53
2023-01-30T20:06:42.817Z,11.51
2023-01-30T20:11:48.973Z,11.54
2023-01-30T20:16:50.797Z,11.53
2023-01-30T20:21:55.932Z,11.56
2023-01-30T20:27:00.603Z,11.52
2023-01-30T20:32:02.305Z,11.51
2023-01-30T22:01:35.563Z,11.54
2023-01-30T22:06:37.822Z,11.52
2023-01-30T22:11:56.444Z,11.53
2023-01-30T22:17:07.555Z,11.53
2023-01-30T22:22:13.387Z,11.54
2023-01-30T22:27:20.207Z,11.55
2023-01-30T22:32:37.380Z,11.52
2023-01-30T22:37:42.341Z,11.51
2023-01-30T22:42:50.761Z,11.54
2023-01-30T22:48:12.657Z,11.53
2023-01-30T22:54:58.628Z,11.53
2023-01-30T22:59:09.839Z,11.54
2023-01-30T23:04:34.463Z,11.54
2023-01-30T23:09:37.968Z,11.55
2023-01-30T23:14:42.975Z,11.50
2023-01-30T23:19:58.239Z,11.54
2023-01-30T23:25:02.749Z,11.55
2023-01-30T23:30:15.295Z,11.54
2023-01-30T23:35:17.828Z,11.54
2023-01-30T23:40:23.431Z,11.51
2023-01-30T23:45:35.193Z,11.53
2023-01-30T23:50:42.872Z,11.53
2023-01-30T23:55:54.613Z,11.51
